Sebasco Estates, Maine
Current Conditions -  °F | °C
As of 8:53 PM on Thursday 20 Nov 2014 (Local Time) from KIWI Reporting Station
Broken Clouds Broken Clouds  
Wind Chill: 31°   Ceiling: 10000
Heat Index: 31°   Visibility: 10mi
Dew Point: 15°   Wind: 3mph
Humidity: 52%   Direction: 230°SW
Pressure: 29.85"   Gusts: NA
Location:  43.77°N, 69.86°W
Report Text: KIWI 210153Z AUTO 23003KT 10SM BKN100 M01/M09 A2985 RMK AO2 SLP108 T10061094
Loading
Personal Weather Stations






























Interactive Weather Map New forecast layout! Learn more

10-Day Weather Forecast

Advertisements
Track Severe Weather on mobile